This is the latest recevied weather packets stored in our database for station/object K5YNC. If no packets are shown the sender has not sent any weather packets the latest 10 day(s).
| Time | Temp. | Humidity | Pressure | Rain* | Wind** | Luminosity | Snow |
|---|---|---|---|---|---|---|---|
| 1777592100 | 16.11° C | 78% | 1016 hPa | 0 mm | - | 43 W/m² | - |
| 1777591798 | 16.67° C | 79% | 1016.1 hPa | 0 mm | - | 35 W/m² | - |
| 1777591494 | 16.67° C | 79% | 1016 hPa | 0 mm | - | 42 W/m² | - |
| 1777591190 | 16.67° C | 79% | 1016 hPa | 0 mm | - | 31 W/m² | - |
| 1777590884 | 16.67° C | 78% | 1016.2 hPa | 0 mm | - | 29 W/m² | - |
| 1777590582 | 16.67° C | 78% | 1016.3 hPa | 0 mm | - | 34 W/m² | - |
| 1777590277 | 16.67° C | 78% | 1016.1 hPa | 0 mm | - | 38 W/m² | - |
| 1777589975 | 16.67° C | 78% | 1016.1 hPa | 0 mm | - | 31 W/m² | - |
| 1777589671 | 16.67° C | 78% | 1016.1 hPa | 0 mm | - | 41 W/m² | - |
| 1777589369 | 16.67° C | 78% | 1016.1 hPa | 0 mm | - | 38 W/m² | - |
| 1777589066 | 16.67° C | 77% | 1015.8 hPa | 0 mm | - | 60 W/m² | - |
| 1777588762 | 16.67° C | 78% | 1015.8 hPa | 0 mm | - | 50 W/m² | - |
| 1777588458 | 16.67° C | 77% | 1015.8 hPa | 0 mm | - | 62 W/m² | - |
| 1777588153 | 16.67° C | 78% | 1015.9 hPa | 0 mm | - | 85 W/m² | - |
| 1777587850 | 16.67° C | 78% | 1016.3 hPa | 0 mm | - | 52 W/m² | - |
| 1777587549 | 16.67° C | 78% | 1016.3 hPa | 0 mm | - | 42 W/m² | - |
| 1777587245 | 16.67° C | 77% | 1016.2 hPa | 0 mm | - | 38 W/m² | - |
| 1777586940 | 16.67° C | 77% | 1016.2 hPa | 0 mm | - | 42 W/m² | - |
| 1777586636 | 16.67° C | 77% | 1016.2 hPa | 0 mm | - | 48 W/m² | - |
| 1777586332 | 16.67° C | 76% | 1016.2 hPa | 0 mm | - | 44 W/m² | - |
| 1777586031 | 16.67° C | 76% | 1016 hPa | 0 mm | - | 53 W/m² | - |
| 1777585731 | 16.67° C | 76% | 1015.9 hPa | 0 mm | - | 52 W/m² | - |
| 1777585430 | 16.67° C | 75% | 1016 hPa | 0 mm | - | 50 W/m² | - |
| 1777585126 | 16.67° C | 75% | 1016.2 hPa | 0 mm | - | 60 W/m² | - |
| 1777584822 | 17.22° C | 74% | 1016.1 hPa | 0 mm | - | 72 W/m² | - |
* Rain latest hour (hover to see other rain measurements)
** Current wind speed in m/s (hover to see current wind gust speed)